Aguas de Sao Pedro, Brazil
Current Conditions -  °F | °C
As of 4:00 PM on Monday 24 Nov 2014 (Local Time) from SBYS Reporting Station
Broken Clouds Broken Clouds  
Wind Chill: 84°   Ceiling: 10000
Heat Index: 85°   Visibility: 6mi
Dew Point: 63°   Wind: 7mph
Humidity: 48%   Direction: 40°NE
Pressure: 29.91"   Gusts: NA
Location:  22.6°S, 47.88°W
Report Text: SBYS 241800Z 04006KT 9999 FEW035 FEW040TCU BKN100 29/17 Q1013
Loading
Personal Weather Stations






























Interactive Weather Map New forecast layout! Learn more

10-Day Weather Forecast

Advertisements
Track Severe Weather on mobile